Airport ICAO


19:55 UTC

15°C

Clear skies


An affordable passengers' Moving Map for your aircraft. Made for the iPad and the iPhone
More information here

LFMN Cote D'Azur


Nice FRANCE   VFR CAVOK


METAR LFMN 091930Z 28012KT CAVOK 15/M01 Q1014 NOSIG 0h25min

TAF LFMN 091400Z 0915/1021 25025KT CAVOK TEMPO 0915/0916 27030G40KT BECMG 0916/0918 30020KT BECMG 0919/0921 32015KT BECMG 1007/1009 24015KT BECMG 1011/1013 16015KT BECMG 1019/1021 01010KT 5h55min





NOTAMS

OPEN